Time;durP1;ratioP1;P1;durP2;ratioP2;P2;SDS_P1;SDS_P2;PMS_P1;PMS_P2;Temp;Humidity;BMP_temperature;BMP_pressure;BME280_temperature;BME280_humidity;BME280_pressure;Samples;Min_cycle;Max_cycle;Signal;HPM_P1;HPM_P2
2022/01/25 00:33:35;;;;;;;58.45;37.95;;;;;;;0.86;91.09;103402.53;5010774;28;20479;-69
2022/01/25 00:36:02;;;;;;;56.83;38.33;;;;;;;0.89;91.18;103404.31;5031119;28;20035;-69
2022/01/25 00:38:28;;;;;;;52.45;35.97;;;;;;;0.90;91.39;103403.44;5031271;28;20026;-68
2022/01/25 00:40:53;;;;;;;56.58;38.65;;;;;;;0.91;91.22;103407.78;5030290;28;20026;-69
2022/01/25 00:43:24;;;;;;;57.50;38.75;;;;;;;0.93;91.00;103403.44;5031142;28;20041;-69
2022/01/25 00:45:53;;;;;;;59.17;38.78;;;;;;;0.92;91.35;103406.94;5030993;28;20033;-69
2022/01/25 00:48:29;;;;;;;60.78;38.22;;;;;;;0.92;91.46;103405.19;5031077;28;20268;-69
2022/01/25 00:51:17;;;;;;;61.05;40.25;;;;;;;0.96;91.23;103406.06;5022705;28;20026;-69
2022/01/25 00:53:58;;;;;;;53.80;36.60;;;;;;;0.97;91.47;103399.13;5017331;28;20065;-69
2022/01/25 00:56:26;;;;;;;51.22;36.10;;;;;;;0.97;91.80;103397.38;5019917;28;20460;-69
2022/01/25 00:58:51;;;;;;;56.75;37.17;;;;;;;1.00;91.70;103396.50;5029915;28;20029;-69
2022/01/25 01:01:18;;;;;;;54.35;36.33;;;;;;;0.99;91.43;103387.78;5029127;28;20341;-69
2022/01/25 01:03:44;;;;;;;52.88;35.88;;;;;;;1.00;91.38;103389.53;5024177;28;20033;-69
2022/01/25 01:06:09;;;;;;;54.42;37.40;;;;;;;1.01;91.41;103393.88;5019831;28;20017;-69
2022/01/25 01:08:34;;;;;;;53.83;38.25;;;;;;;1.03;91.35;103392.16;5029114;28;20121;-68
2022/01/25 01:11:03;;;;;;;53.22;37.10;;;;;;;1.03;91.61;103386.94;5029100;28;20087;-69
2022/01/25 01:16:34;;;;;;;52.83;37.13;;;;;;;1.06;91.84;103391.28;5030801;28;20072;-69
2022/01/25 01:33:09;;;;;;;55.75;37.25;;;;;;;1.15;91.53;103406.16;5026071;28;20104;-69
2022/01/25 01:43:19;;;;;;;62.95;39.20;;;;;;;1.17;92.00;103399.22;5030514;28;20033;-68
2022/01/25 01:48:26;;;;;;;64.55;40.45;;;;;;;1.18;91.68;103395.69;5030210;28;20037;-69
2022/01/25 01:50:52;;;;;;;62.78;40.90;;;;;;;1.18;91.62;103399.19;5030420;28;20029;-69
2022/01/25 01:53:17;;;;;;;66.38;42.35;;;;;;;1.19;91.92;103400.94;5030003;28;20044;-68
2022/01/25 01:55:43;;;;;;;62.53;40.67;;;;;;;1.22;92.17;103405.31;5028068;28;20062;-69
2022/01/25 01:58:08;;;;;;;68.88;41.97;;;;;;;1.23;92.25;103400.09;5030207;28;20079;-68
2022/01/25 02:00:39;;;;;;;61.85;39.60;;;;;;;1.25;91.96;103403.59;5018381;28;20042;-68
2022/01/25 02:03:05;;;;;;;56.22;38.60;;;;;;;1.26;91.67;103414.94;5028876;28;20029;-69
2022/01/25 02:05:31;;;;;;;57.90;38.83;;;;;;;1.27;92.13;103414.06;5030086;28;20506;-69
2022/01/25 02:07:56;;;;;;;57.78;38.55;;;;;;;1.29;92.16;103407.94;5030195;28;20108;-69
2022/01/25 02:10:22;;;;;;;55.75;37.72;;;;;;;1.29;92.18;103402.72;5028031;28;20057;-69
2022/01/25 02:12:49;;;;;;;62.80;40.03;;;;;;;1.27;92.16;103396.59;5028669;28;20036;-69
2022/01/25 02:15:16;;;;;;;60.47;38.58;;;;;;;1.29;91.88;103399.25;5029165;28;20033;-69
2022/01/25 02:22:56;;;;;;;58.42;40.42;;;;;;;1.34;92.49;103409.72;5033859;28;20048;-69
2022/01/25 02:25:22;;;;;;;60.13;39.17;;;;;;;1.33;91.92;103392.25;5028144;28;20029;-69
2022/01/25 02:27:48;;;;;;;59.35;40.13;;;;;;;1.34;91.95;103388.78;5033700;28;20056;-69
2022/01/25 02:30:14;;;;;;;59.95;39.63;;;;;;;1.35;91.73;103382.66;5033635;28;20479;-69
2022/01/25 02:32:39;;;;;;;55.95;39.47;;;;;;;1.33;92.10;103382.66;5033611;28;20536;-69
2022/01/25 02:35:06;;;;;;;62.40;38.95;;;;;;;1.36;91.86;103381.81;5029589;28;20037;-68
2022/01/25 02:37:31;;;;;;;62.38;41.05;;;;;;;1.35;91.57;103380.94;5030663;28;20044;-69
2022/01/25 02:39:57;;;;;;;60.10;40.50;;;;;;;1.37;91.94;103376.56;5033615;28;20100;-69
2022/01/25 02:42:23;;;;;;;58.17;40.22;;;;;;;1.37;92.22;103373.09;5031580;28;20033;-69
2022/01/25 02:44:48;;;;;;;59.08;39.33;;;;;;;1.37;91.86;103367.84;5023885;28;20025;-68
2022/01/25 02:49:58;;;;;;;59.22;39.65;;;;;;;1.40;92.05;103367.84;5033759;28;20538;-69
2022/01/25 02:52:24;;;;;;;61.03;40.10;;;;;;;1.40;91.88;103367.84;5023714;28;20034;-70
2022/01/25 02:54:49;;;;;;;54.08;38.45;;;;;;;1.41;92.02;103378.31;5033339;28;20036;-69
2022/01/25 02:57:15;;;;;;;59.63;38.97;;;;;;;1.41;92.34;103365.22;5031874;28;20025;-68
2022/01/25 02:59:40;;;;;;;55.97;38.13;;;;;;;1.42;91.69;103366.13;5024980;28;20041;-69
2022/01/25 03:02:06;;;;;;;61.70;40.10;;;;;;;1.42;92.38;103369.59;5033281;28;20109;-69
2022/01/25 03:04:31;;;;;;;59.63;39.92;;;;;;;1.42;92.57;103366.97;5033151;28;20021;-69
2022/01/25 03:06:57;;;;;;;57.22;39.63;;;;;;;1.43;92.39;103362.59;5033031;28;20021;-69
2022/01/25 03:09:22;;;;;;;60.25;40.60;;;;;;;1.45;92.60;103368.75;5019296;28;20034;-69
2022/01/25 03:11:51;;;;;;;59.33;39.78;;;;;;;1.44;92.41;103362.63;5031994;28;20022;-69
2022/01/25 03:14:19;;;;;;;55.70;38.28;;;;;;;1.44;92.31;103362.63;5027835;28;20512;-69
2022/01/25 03:17:04;;;;;;;55.38;38.20;;;;;;;1.45;92.35;103356.50;5029010;28;20025;-69
2022/01/25 03:22:14;;;;;;;58.08;38.38;;;;;;;1.47;92.35;103343.44;5032699;28;20491;-69
2022/01/25 03:24:40;;;;;;;57.78;38.75;;;;;;;1.48;92.35;103350.41;5027494;28;20029;-69
2022/01/25 03:27:05;;;;;;;56.47;38.25;;;;;;;1.48;92.41;103351.28;5029268;28;20025;-69
2022/01/25 03:29:30;;;;;;;60.67;40.28;;;;;;;1.49;92.88;103352.16;5025542;28;20052;-69
2022/01/25 03:31:56;;;;;;;55.35;38.40;;;;;;;1.48;92.50;103358.25;5032494;28;20021;-69
2022/01/25 03:34:21;;;;;;;55.72;37.17;;;;;;;1.50;92.50;103351.28;5032454;28;20029;-69
2022/01/25 03:36:46;;;;;;;56.80;37.05;;;;;;;1.50;92.19;103343.44;5020634;28;20087;-69
2022/01/25 03:39:13;;;;;;;56.65;37.03;;;;;;;1.50;92.27;103337.31;5031258;28;20655;-70
2022/01/25 03:41:38;;;;;;;58.22;37.90;;;;;;;1.51;92.37;103346.91;5032353;28;20499;-69
2022/01/25 03:44:04;;;;;;;58.20;38.22;;;;;;;1.51;92.71;103341.69;5032335;28;20113;-69
2022/01/25 03:51:41;;;;;;;59.95;38.70;;;;;;;1.52;92.49;103335.59;5032255;28;20087;-69
2022/01/25 03:54:07;;;;;;;59.72;38.90;;;;;;;1.52;92.57;103343.44;5032143;28;20132;-69
2022/01/25 03:56:32;;;;;;;62.50;40.83;;;;;;;1.52;92.57;103343.44;5028322;28;20033;-69
2022/01/25 03:58:58;;;;;;;59.35;37.38;;;;;;;1.52;92.57;103351.31;5031935;28;20025;-69
2022/01/25 04:01:23;;;;;;;66.88;41.58;;;;;;;1.53;92.43;103350.41;5031976;28;20491;-69
2022/01/25 04:03:59;;;;;;;59.35;37.95;;;;;;;1.55;92.79;103351.28;5027414;28;20029;-69
2022/01/25 04:06:29;;;;;;;60.95;38.40;;;;;;;1.56;92.82;103353.03;5032105;28;20025;-69
2022/01/25 04:08:54;;;;;;;60.58;39.22;;;;;;;1.55;92.91;103353.91;5030630;28;20025;-69
2022/01/25 04:11:19;;;;;;;58.28;39.92;;;;;;;1.56;92.75;103353.03;5031092;28;20029;-68
2022/01/25 04:13:45;;;;;;;61.97;38.90;;;;;;;1.56;92.82;103359.13;5031805;28;20027;-69
2022/01/25 04:16:16;;;;;;;61.65;39.95;;;;;;;1.57;93.25;103360.03;5029210;28;20028;-69
2022/01/25 04:18:59;;;;;;;63.65;40.25;;;;;;;1.58;92.99;103354.81;5021728;28;20395;-69
2022/01/25 04:26:57;;;;;;;56.85;36.65;;;;;;;1.60;93.19;103349.53;5019306;28;20047;-69
2022/01/25 04:29:24;;;;;;;60.78;38.88;;;;;;;1.60;93.05;103346.91;5031717;28;20104;-69
2022/01/25 04:31:49;;;;;;;57.88;39.35;;;;;;;1.61;93.15;103341.69;5031530;28;20037;-69
2022/01/25 04:50:05;;;;;;;59.33;39.08;;;;;;;1.64;93.09;103335.59;5020015;28;20113;-69
2022/01/25 04:52:38;;;;;;;55.60;38.33;;;;;;;1.64;93.17;103344.31;5028077;28;20438;-69
2022/01/25 04:55:13;;;;;;;55.33;38.80;;;;;;;1.63;93.36;103336.44;5027350;28;20035;-69
2022/01/25 04:57:54;;;;;;;58.88;38.63;;;;;;;1.66;93.08;103339.94;5025395;28;20017;-69
2022/01/25 05:00:22;;;;;;;58.70;39.30;;;;;;;1.67;93.42;103331.22;5029267;28;20038;-69
2022/01/25 05:02:56;;;;;;;57.67;39.53;;;;;;;1.66;93.17;103332.06;5025242;28;20030;-69
2022/01/25 05:05:32;;;;;;;61.55;41.13;;;;;;;1.69;92.96;103332.97;5030883;28;20040;-69
2022/01/25 05:08:15;;;;;;;65.30;42.03;;;;;;;1.70;93.32;103329.47;5030747;28;20021;-69
2022/01/25 05:10:50;;;;;;;62.22;40.08;;;;;;;1.70;92.95;103327.75;5030647;28;20025;-69
2022/01/25 05:16:00;;;;;;;60.28;39.90;;;;;;;1.71;92.96;103331.22;5021274;28;20491;-69
2022/01/25 05:18:37;;;;;;;61.67;39.58;;;;;;;1.71;92.64;103331.22;5028951;28;20060;-68
2022/01/25 05:23:47;;;;;;;59.47;39.88;;;;;;;1.72;92.94;103331.22;5017079;28;20130;-69
2022/01/25 05:26:12;;;;;;;57.53;39.25;;;;;;;1.72;93.24;103326.00;5023537;28;20058;-69
2022/01/25 05:28:37;;;;;;;64.07;40.28;;;;;;;1.74;92.71;103329.47;5026425;28;20116;-69
2022/01/25 05:31:02;;;;;;;65.43;41.88;;;;;;;1.74;93.10;103326.00;5035614;28;20689;-69
2022/01/25 05:33:28;;;;;;;62.65;40.33;;;;;;;1.74;92.53;103323.38;5030833;28;20031;-69
2022/01/25 05:35:53;;;;;;;59.67;40.45;;;;;;;1.75;92.89;103327.72;5030387;28;20032;-69
2022/01/25 05:38:18;;;;;;;62.58;42.47;;;;;;;1.74;92.53;103324.22;5023656;28;20044;-70
2022/01/25 05:40:47;;;;;;;62.35;40.90;;;;;;;1.75;93.02;103326.00;5030295;28;20487;-69
2022/01/25 05:45:58;;;;;;;63.58;41.65;;;;;;;1.75;92.81;103318.13;5026902;28;20045;-69
2022/01/25 05:48:24;;;;;;;60.83;41.45;;;;;;;1.75;93.40;103318.13;5024753;28;20037;-69
2022/01/25 05:50:50;;;;;;;59.88;38.97;;;;;;;1.76;93.07;103321.63;5031063;28;20041;-69
2022/01/25 05:53:15;;;;;;;58.33;38.78;;;;;;;1.77;93.28;103323.38;5033629;28;20076;-69
2022/01/25 05:55:41;;;;;;;56.78;37.40;;;;;;;1.77;93.06;103323.38;5032109;28;20104;-69
2022/01/25 05:58:06;;;;;;;57.17;38.67;;;;;;;1.77;93.29;103323.38;5032207;28;20080;-69
2022/01/25 06:00:31;;;;;;;58.80;38.75;;;;;;;1.76;93.27;103322.47;5028158;28;20035;-69
2022/01/25 06:02:56;;;;;;;60.60;41.05;;;;;;;1.79;93.46;103319.00;5029777;28;20106;-69
2022/01/25 06:05:25;;;;;;;61.78;41.13;;;;;;;1.78;93.35;103312.00;5026201;28;20362;-69
2022/01/25 06:07:51;;;;;;;62.17;40.70;;;;;;;1.78;93.18;103319.88;5027068;28;20481;-69
2022/01/25 06:10:17;;;;;;;59.95;39.65;;;;;;;1.77;93.23;103324.25;5034009;28;20029;-69
2022/01/25 06:12:44;;;;;;;65.80;41.33;;;;;;;1.80;92.82;103310.28;5033927;28;20033;-69
2022/01/25 06:15:11;;;;;;;73.63;42.90;;;;;;;1.81;93.46;103320.72;5034102;28;20458;-69
2022/01/25 06:17:36;;;;;;;71.70;43.83;;;;;;;1.80;93.01;103315.53;5031990;28;20033;-69
2022/01/25 06:20:02;;;;;;;71.85;43.70;;;;;;;1.79;92.98;103314.63;5033904;28;20033;-69
2022/01/25 06:22:27;;;;;;;71.90;42.70;;;;;;;1.77;93.26;103311.13;5033773;28;20035;-69
2022/01/25 06:24:53;;;;;;;63.20;39.90;;;;;;;1.80;93.24;103319.00;5034120;28;20026;-69
2022/01/25 06:27:18;;;;;;;58.28;39.83;;;;;;;1.82;93.39;103319.88;5016836;28;20562;-69
2022/01/25 06:29:44;;;;;;;64.50;40.35;;;;;;;1.82;93.43;103317.25;5013646;28;20101;-69
2022/01/25 06:32:10;;;;;;;61.70;40.35;;;;;;;1.82;93.50;103322.50;5014089;28;20025;-68
2022/01/25 06:34:35;;;;;;;64.10;41.72;;;;;;;1.82;93.31;103317.25;5014003;28;20388;-69
2022/01/25 06:37:01;;;;;;;62.72;41.55;;;;;;;1.84;93.39;103318.13;5013933;28;20026;-69
2022/01/25 06:39:26;;;;;;;62.75;41.85;;;;;;;1.83;93.43;103324.25;5023928;28;20438;-69
2022/01/25 06:41:51;;;;;;;63.60;42.75;;;;;;;1.84;93.45;103327.72;5033351;28;20497;-69
2022/01/25 06:44:17;;;;;;;66.25;42.72;;;;;;;1.84;93.04;103335.59;5021887;28;20033;-69
2022/01/25 06:46:42;;;;;;;63.42;40.22;;;;;;;1.83;93.29;103326.88;5033085;28;20037;-69
2022/01/25 06:49:07;;;;;;;63.50;41.05;;;;;;;1.86;93.28;103328.59;5033380;28;20029;-70
2022/01/25 06:51:33;;;;;;;60.47;40.05;;;;;;;1.85;93.15;103319.88;5026484;28;20037;-69
2022/01/25 06:53:58;;;;;;;68.78;42.72;;;;;;;1.87;93.19;103326.88;5032944;28;20136;-69
2022/01/25 06:56:24;;;;;;;71.90;41.92;;;;;;;1.86;93.29;103328.59;5027201;28;20476;-69
2022/01/25 06:58:49;;;;;;;66.07;43.00;;;;;;;1.84;92.61;103318.13;5013537;28;20030;-69
2022/01/25 07:01:17;;;;;;;64.63;42.42;;;;;;;1.87;93.37;103327.75;5013284;28;20103;-70
2022/01/25 07:03:42;;;;;;;65.68;42.42;;;;;;;1.88;93.44;103333.84;5013152;28;20242;-69
2022/01/25 07:06:08;;;;;;;65.15;43.30;;;;;;;1.89;93.18;103335.59;5031353;28;20360;-69
2022/01/25 07:08:33;;;;;;;64.22;42.83;;;;;;;1.88;93.08;103337.31;5031793;28;20036;-69
2022/01/25 07:10:58;;;;;;;66.28;41.47;;;;;;;1.89;92.76;103344.31;5030190;28;20083;-69
2022/01/25 07:13:24;;;;;;;71.82;44.88;;;;;;;1.88;92.65;103336.47;5032735;28;20037;-68
2022/01/25 07:15:49;;;;;;;66.25;43.13;;;;;;;1.89;93.41;103346.94;5033019;28;20037;-69
2022/01/25 07:18:15;;;;;;;68.20;42.53;;;;;;;1.90;93.27;103343.47;5021037;28;20400;-69
2022/01/25 07:20:40;;;;;;;72.95;44.42;;;;;;;1.89;93.13;103338.22;5032827;28;20029;-69
2022/01/25 07:23:06;;;;;;;71.72;44.95;;;;;;;1.91;93.35;103337.34;5026805;28;20038;-69
2022/01/25 07:25:31;;;;;;;65.47;43.00;;;;;;;1.92;93.34;103335.59;5026743;28;20025;-71
2022/01/25 07:27:56;;;;;;;74.78;45.03;;;;;;;1.92;93.09;103340.84;5034143;28;20049;-68
2022/01/25 07:30:22;;;;;;;71.63;45.28;;;;;;;1.92;92.98;103343.47;5034112;28;20030;-69
2022/01/25 07:32:47;;;;;;;72.65;44.25;;;;;;;1.93;93.29;103340.84;5026951;28;20049;-69
2022/01/25 07:35:13;;;;;;;65.43;43.90;;;;;;;1.95;93.30;103346.97;5021073;28;20032;-69
2022/01/25 07:37:38;;;;;;;69.70;43.70;;;;;;;1.96;92.90;103345.19;5019414;28;20291;-69
2022/01/25 07:40:04;;;;;;;69.18;43.70;;;;;;;1.97;92.96;103341.72;5014984;28;20483;-69
2022/01/25 07:42:34;;;;;;;76.57;47.80;;;;;;;1.96;92.76;103343.44;5015972;28;20096;-69
2022/01/25 07:44:59;;;;;;;69.30;43.10;;;;;;;1.97;93.00;103341.72;5025531;28;20033;-70
2022/01/25 07:47:24;;;;;;;82.10;51.05;;;;;;;1.96;91.43;103345.19;5020891;28;20051;-69
2022/01/25 07:49:50;;;;;;;85.93;54.40;;;;;;;1.99;91.23;103342.59;5032772;28;20124;-70
2022/01/25 07:52:15;;;;;;;83.47;51.00;;;;;;;1.99;91.13;103351.31;5037225;28;20033;-69
2022/01/25 07:54:42;;;;;;;86.15;49.97;;;;;;;2.02;91.59;103347.81;5035519;28;20092;-70
2022/01/25 07:57:07;;;;;;;79.10;48.83;;;;;;;2.01;91.96;103346.94;5033198;28;20447;-69
2022/01/25 07:59:32;;;;;;;84.50;50.00;;;;;;;2.03;91.92;103357.41;5046328;28;20033;-69
2022/01/25 08:01:57;;;;;;;84.45;52.30;;;;;;;2.04;91.21;103352.19;5044273;28;20039;-70
2022/01/25 08:04:23;;;;;;;86.40;53.08;;;;;;;2.04;91.00;103349.56;5035260;28;20053;-70
2022/01/25 08:06:48;;;;;;;86.93;54.03;;;;;;;2.06;89.55;103348.69;5037555;28;20082;-69
2022/01/25 08:09:14;;;;;;;86.47;52.38;;;;;;;2.08;88.55;103349.56;5031838;28;20030;-69
2022/01/25 08:11:40;;;;;;;85.90;55.10;;;;;;;2.10;88.27;103351.31;5016273;28;20030;-69
2022/01/25 08:14:14;;;;;;;87.78;55.00;;;;;;;2.10;88.59;103348.69;5016013;28;20045;-69
2022/01/25 08:16:42;;;;;;;90.07;55.65;;;;;;;2.12;89.32;103340.84;5018069;28;20031;-69
2022/01/25 08:19:08;;;;;;;84.78;53.78;;;;;;;2.13;89.37;103346.09;5014761;28;20045;-69
2022/01/25 08:21:33;;;;;;;88.18;54.33;;;;;;;2.15;89.47;103351.28;5030174;28;20034;-70
2022/01/25 08:23:58;;;;;;;93.05;56.90;;;;;;;2.14;88.90;103349.56;5042146;28;20502;-70
2022/01/25 08:26:24;;;;;;;92.65;55.40;;;;;;;2.16;89.09;103356.53;5030738;28;20487;-69
2022/01/25 08:28:49;;;;;;;91.43;55.97;;;;;;;2.17;88.28;103355.69;5041068;28;20037;-69
2022/01/25 08:31:14;;;;;;;92.32;55.55;;;;;;;2.19;88.18;103364.41;5030825;28;20036;-69
2022/01/25 08:33:39;;;;;;;95.38;56.38;;;;;;;2.20;87.80;103363.53;5031791;28;20040;-70
2022/01/25 08:36:05;;;;;;;92.90;56.28;;;;;;;2.25;86.71;103360.94;5029676;28;20029;-69
2022/01/25 08:38:30;;;;;;;93.20;57.17;;;;;;;2.25;86.63;103352.16;5043491;28;20064;-69
2022/01/25 08:40:56;;;;;;;97.10;58.35;;;;;;;2.25;87.19;103358.31;5022122;28;20034;-68
2022/01/25 08:43:22;;;;;;;88.78;56.63;;;;;;;2.28;87.64;103362.66;5030047;28;20055;-69
2022/01/25 08:45:47;;;;;;;89.32;55.80;;;;;;;2.28;88.07;103355.69;5017977;28;20113;-69
2022/01/25 08:48:12;;;;;;;91.63;56.58;;;;;;;2.31;88.45;103360.03;5020832;28;20056;-69
2022/01/25 08:50:37;;;;;;;88.47;53.90;;;;;;;2.30;87.89;103351.31;5017980;28;20021;-70
2022/01/25 08:53:03;;;;;;;85.78;55.72;;;;;;;2.32;87.57;103360.03;5014791;28;20045;-69
2022/01/25 08:55:28;;;;;;;90.35;55.75;;;;;;;2.33;88.35;103359.16;5026434;28;20069;-69
2022/01/25 08:57:53;;;;;;;101.63;59.13;;;;;;;2.34;87.95;103363.50;5030282;28;20049;-69
2022/01/25 09:00:19;;;;;;;102.97;60.45;;;;;;;2.35;87.59;103362.66;5027605;28;20021;-69
2022/01/25 09:02:44;;;;;;;99.60;59.50;;;;;;;2.38;87.37;103369.63;5027419;28;20056;-70
2022/01/25 09:05:09;;;;;;;98.97;62.00;;;;;;;2.37;87.48;103360.91;5029440;28;20101;-70
2022/01/25 09:07:35;;;;;;;102.68;61.58;;;;;;;2.40;86.53;103367.91;5028693;28;20033;-70
2022/01/25 09:10:00;;;;;;;112.22;68.18;;;;;;;2.40;85.65;103371.38;5030640;28;20064;-69
2022/01/25 09:12:27;;;;;;;110.63;66.45;;;;;;;2.43;86.52;103370.50;5027056;28;20029;-69
2022/01/25 09:14:52;;;;;;;108.97;67.55;;;;;;;2.44;86.80;103371.38;5031101;28;20021;-70
2022/01/25 09:17:18;;;;;;;108.43;65.22;;;;;;;2.45;86.04;103370.50;5024345;28;20040;-69
2022/01/25 09:19:44;;;;;;;121.18;70.13;;;;;;;2.45;86.02;103370.50;5030900;28;20030;-69
2022/01/25 09:22:10;;;;;;;114.85;68.63;;;;;;;2.45;86.58;103370.50;5025662;28;20025;-69
2022/01/25 09:24:37;;;;;;;114.00;67.53;;;;;;;2.48;86.96;103375.72;5030252;28;20048;-70
2022/01/25 09:27:05;;;;;;;115.22;68.35;;;;;;;2.46;85.86;103367.00;5026291;28;20056;-70
2022/01/25 09:29:31;;;;;;;118.75;68.65;;;;;;;2.50;85.96;103373.97;5029938;28;20468;-70
2022/01/25 09:31:56;;;;;;;114.47;68.68;;;;;;;2.51;85.54;103375.72;5029643;28;20108;-70
2022/01/25 09:34:23;;;;;;;116.65;69.10;;;;;;;2.50;85.08;103381.84;5026890;28;20237;-70
2022/01/25 09:36:50;;;;;;;119.57;69.40;;;;;;;2.51;85.14;103373.09;5029639;28;20022;-70
2022/01/25 09:39:15;;;;;;;118.78;70.53;;;;;;;2.52;86.03;103361.75;5029961;28;20086;-70
2022/01/25 09:41:41;;;;;;;119.03;74.10;;;;;;;2.55;85.42;103373.09;5028047;28;20029;-70
2022/01/25 09:44:06;;;;;;;122.57;73.95;;;;;;;2.57;85.45;103370.47;5029575;28;20483;-70
2022/01/25 09:46:31;;;;;;;119.80;72.55;;;;;;;2.59;85.43;103382.69;5026347;28;20033;-70
2022/01/25 09:48:56;;;;;;;128.35;76.55;;;;;;;2.62;85.19;103379.22;5029496;28;20036;-70
2022/01/25 09:51:23;;;;;;;123.30;73.55;;;;;;;2.63;85.29;103386.22;5029647;28;20080;-70
2022/01/25 09:53:49;;;;;;;123.07;73.30;;;;;;;2.62;84.80;103384.47;5029683;28;20137;-69
2022/01/25 09:56:14;;;;;;;122.57;74.10;;;;;;;2.64;84.55;103384.47;5010379;28;23514;-70
2022/01/25 09:58:40;;;;;;;124.65;74.97;;;;;;;2.65;84.23;103388.81;5029253;28;20029;-70
2022/01/25 10:01:05;;;;;;;123.38;74.43;;;;;;;2.67;83.83;103381.84;5029313;28;20479;-70
2022/01/25 10:03:38;;;;;;;123.53;74.70;;;;;;;2.67;84.11;103393.19;5026174;28;20026;-69
2022/01/25 10:06:11;;;;;;;121.72;72.55;;;;;;;2.73;84.66;103390.56;5026634;28;20088;-70
2022/01/25 10:08:37;;;;;;;123.22;72.70;;;;;;;2.74;84.10;103391.44;5027177;28;20394;-70
2022/01/25 10:11:11;;;;;;;126.57;75.60;;;;;;;2.75;84.78;103390.56;5029003;28;20036;-70
2022/01/25 10:13:42;;;;;;;121.38;72.20;;;;;;;2.78;84.43;103395.78;5025717;28;20092;-69
2022/01/25 10:16:17;;;;;;;110.50;68.10;;;;;;;2.79;84.25;103394.91;5029060;28;20021;-69
2022/01/25 10:18:48;;;;;;;117.13;71.25;;;;;;;2.85;84.41;103394.00;5025796;28;20088;-70
2022/01/25 10:21:17;;;;;;;116.40;69.95;;;;;;;2.86;83.47;103387.88;5020275;28;20370;-70
2022/01/25 10:24:11;;;;;;;111.68;67.68;;;;;;;2.87;83.13;103392.28;5029275;28;20026;-70
2022/01/25 10:26:43;;;;;;;107.05;66.10;;;;;;;2.88;82.86;103397.53;5029284;28;20034;-70
2022/01/25 10:29:10;;;;;;;108.47;67.55;;;;;;;2.92;82.83;103401.00;5027340;28;20025;-70
2022/01/25 10:31:41;;;;;;;106.72;65.43;;;;;;;2.93;82.39;103392.22;5028889;28;20090;-70
2022/01/25 10:34:09;;;;;;;106.70;66.82;;;;;;;2.95;82.23;103390.50;5025383;28;20387;-70
2022/01/25 10:36:44;;;;;;;109.22;67.30;;;;;;;2.95;82.04;103390.50;5028979;28;20029;-69
2022/01/25 10:39:09;;;;;;;108.60;67.53;;;;;;;3.00;82.70;103385.19;5032118;28;20108;-70
2022/01/25 10:41:35;;;;;;;112.35;68.75;;;;;;;3.01;82.36;103392.22;5029455;28;20029;-70
2022/01/25 10:44:00;;;;;;;110.38;68.88;;;;;;;3.03;83.14;103391.34;5030907;28;20021;-70
2022/01/25 10:46:31;;;;;;;110.10;69.43;;;;;;;3.05;81.88;103384.31;5031803;28;20043;-69
2022/01/25 10:48:58;;;;;;;108.00;67.07;;;;;;;3.06;82.12;103387.81;5032618;28;20109;-69
2022/01/25 10:51:30;;;;;;;113.07;68.20;;;;;;;3.09;81.71;103388.66;5034603;28;20384;-69
2022/01/25 10:53:59;;;;;;;102.30;65.13;;;;;;;3.11;81.50;103386.94;5034672;28;20052;-69
2022/01/25 10:56:24;;;;;;;107.40;64.55;;;;;;;3.15;81.70;103393.03;5024350;28;20036;-70
2022/01/25 10:58:50;;;;;;;104.93;65.38;;;;;;;3.17;81.02;103387.78;5040540;28;20033;-70
2022/01/25 11:01:30;;;;;;;103.35;66.95;;;;;;;3.20;82.06;103379.88;5027904;28;20467;-69
2022/01/25 11:04:07;;;;;;;105.45;65.28;;;;;;;3.20;81.46;103377.25;5034387;28;20029;-70
2022/01/25 11:06:33;;;;;;;111.18;67.32;;;;;;;3.23;80.57;103385.09;5038068;28;20033;-70
2022/01/25 11:09:01;;;;;;;108.32;66.22;;;;;;;3.25;80.48;103384.22;5031329;28;20033;-70
2022/01/25 11:11:32;;;;;;;110.72;68.90;;;;;;;3.26;80.75;103385.97;5015087;28;20404;-70
2022/01/25 11:14:49;;;;;;;104.65;65.60;;;;;;;3.29;80.53;103382.47;5015172;28;20562;-70
2022/01/25 11:16:42;;;;;;;104.32;66.03;;;;;;;3.29;79.34;103385.94;5031199;28;20052;-69
2022/01/25 11:19:08;;;;;;;108.85;64.97;;;;;;;3.30;79.68;103394.72;5028646;28;20025;-70
2022/01/25 11:21:33;;;;;;;107.43;65.50;;;;;;;3.34;80.16;103399.06;5023763;28;20553;-69
2022/01/25 11:23:58;;;;;;;108.72;67.00;;;;;;;3.34;80.62;103397.31;5032077;28;20028;-70
2022/01/25 11:26:24;;;;;;;109.13;67.35;;;;;;;3.40;80.75;103395.53;5030577;28;20476;-71
2022/01/25 11:28:50;;;;;;;108.15;69.55;;;;;;;3.41;80.84;103390.25;5027429;28;20065;-70
2022/01/25 11:31:22;;;;;;;107.72;69.25;;;;;;;3.44;81.66;103386.75;5029512;28;20053;-70
2022/01/25 11:33:49;;;;;;;107.60;69.80;;;;;;;3.46;80.24;103390.25;5031336;28;20415;-70
2022/01/25 11:36:15;;;;;;;113.65;70.13;;;;;;;3.48;79.92;103389.38;5034159;28;20053;-70
2022/01/25 11:39:02;;;;;;;109.93;68.65;;;;;;;3.48;81.03;103386.75;5029582;28;20486;-70
2022/01/25 11:41:29;;;;;;;106.30;67.32;;;;;;;3.51;80.67;103389.34;5030392;28;20056;-70
2022/01/25 11:44:13;;;;;;;107.90;69.13;;;;;;;3.54;80.80;103383.19;5030342;28;20033;-69
2022/01/25 11:46:42;;;;;;;110.55;69.97;;;;;;;3.57;80.23;103384.94;5024867;28;20048;-70
2022/01/25 11:49:18;;;;;;;110.93;68.67;;;;;;;3.57;80.68;103382.31;5032088;28;20025;-70
2022/01/25 11:51:45;;;;;;;109.03;70.65;;;;;;;3.59;80.59;103386.66;5030768;28;20076;-70
2022/01/25 11:54:11;;;;;;;113.20;69.47;;;;;;;3.61;80.45;103381.41;5037666;28;20044;-70
2022/01/25 11:56:38;;;;;;;105.47;68.38;;;;;;;3.62;80.65;103391.91;5026212;28;20038;-70
2022/01/25 11:59:05;;;;;;;107.32;70.30;;;;;;;3.65;80.38;103385.75;5026069;28;20390;-70
2022/01/25 12:01:34;;;;;;;106.45;68.63;;;;;;;3.66;81.03;103376.97;5013786;28;20038;-70
2022/01/25 12:04:05;;;;;;;111.30;70.45;;;;;;;3.68;79.28;103383.97;5012683;28;20029;-70
2022/01/25 12:06:37;;;;;;;100.25;66.32;;;;;;;3.69;78.90;103385.72;5027530;28;20506;-71
2022/01/25 12:11:41;;;;;;;103.90;66.97;;;;;;;3.70;78.78;103370.84;5021393;28;20470;-70
2022/01/25 12:14:17;;;;;;;99.32;65.35;;;;;;;3.68;78.12;103367.31;5031070;28;20108;-70
2022/01/25 12:16:47;;;;;;;102.47;65.80;;;;;;;3.67;77.86;103366.47;5031086;28;20034;-70
2022/01/25 12:19:21;;;;;;;109.25;69.38;;;;;;;3.67;78.04;103365.59;5028983;28;20029;-70
2022/01/25 12:21:51;;;;;;;105.28;67.60;;;;;;;3.69;78.48;103376.97;5014534;28;20113;-70
2022/01/25 12:24:47;;;;;;;101.75;66.57;;;;;;;3.73;78.42;103369.91;5014276;28;20021;-70
2022/01/25 12:27:29;;;;;;;109.65;69.55;;;;;;;3.74;78.95;103371.69;5021315;28;20041;-71
2022/01/25 12:30:13;;;;;;;104.57;65.75;;;;;;;3.74;78.53;103358.53;5030611;28;20100;-72
2022/01/25 12:33:04;;;;;;;105.05;65.68;;;;;;;3.77;78.79;103353.25;5024951;28;20044;-71
2022/01/25 12:35:41;;;;;;;100.85;66.90;;;;;;;3.83;78.20;103358.44;5019470;28;20080;-71
2022/01/25 12:38:07;;;;;;;107.35;67.20;;;;;;;3.84;78.37;103352.31;5027514;28;20035;-70
2022/01/25 12:40:49;;;;;;;103.97;65.88;;;;;;;3.80;77.85;103337.47;5012802;28;20491;-71
2022/01/25 12:43:22;;;;;;;100.78;64.32;;;;;;;3.84;77.94;103345.28;5015657;28;20368;-70
2022/01/25 12:45:55;;;;;;;100.93;64.28;;;;;;;3.89;78.54;103353.16;5028952;28;20112;-71
2022/01/25 12:48:25;;;;;;;105.50;66.07;;;;;;;3.89;78.54;103350.53;5024986;28;20673;-71
2022/01/25 12:50:53;;;;;;;105.60;67.72;;;;;;;3.93;78.01;103351.38;5022138;28;20045;-70
2022/01/25 12:53:30;;;;;;;102.85;66.55;;;;;;;3.93;77.50;103354.00;5024667;28;20056;-71
2022/01/25 12:56:02;;;;;;;101.88;64.18;;;;;;;3.91;77.28;103340.00;5029825;28;20431;-71
2022/01/25 12:58:30;;;;;;;98.22;64.15;;;;;;;3.91;76.89;103348.75;5023498;28;20026;-71
2022/01/25 13:00:59;;;;;;;103.13;66.93;;;;;;;3.89;77.06;103342.63;5023941;28;20048;-71
2022/01/25 13:03:29;;;;;;;100.07;66.53;;;;;;;3.94;77.63;103337.34;5009848;28;20287;-70
2022/01/25 13:06:14;;;;;;;101.78;66.53;;;;;;;3.98;78.17;103332.06;5027097;28;20111;-70